Wednesday, September 20, 2017, 9:33 PM EDT

KPOU, Poughkeepsie Dutchess Cty

Location: Wappingers Falls, NY, United States Lat: 41.633
Local Time: 9:33 PM EDT ( 1:33 GMT) Lon: -73.883
Time Zone: US/Eastern Elev: 167 ft

Show me the last for .
Show Decoded

2017-09-20 20:53 METAR KPOU 210053Z 00000KT 10SM FEW055 22/17 A2993 RMK AO2 SLP132 T02170172 =
2017-09-20 19:53 METAR KPOU 202353Z 34003KT 10SM CLR 22/17 A2992 RMK AO2 SLP129 T02220172 10261
                 20222 51008 =
2017-09-20 18:53 METAR KPOU 202253Z 35003KT 10SM SCT045 OVC060 24/18 A2991 RMK AO2 SLP125
                 T02390178 =
2017-09-20 17:53 METAR KPOU 202153Z 01004KT 10SM OVC055 24/18 A2991 RMK AO2 SLP125 T02440178 =
2017-09-20 16:53 METAR KPOU 202053Z 01008KT 10SM FEW048 BKN085 26/18 A2990 RMK AO2 SLP121
                 T02560178 55001 =
2017-09-20 15:53 METAR KPOU 201953Z AUTO 36006KT 10SM BKN044 BKN085 26/18 A2989 RMK AO2 SLP117
                 T02560178 =
2017-09-20 14:53 METAR KPOU 201853Z 34008KT 10SM OVC040 25/18 A2990 RMK AO2 SLP119 T02500178 =
2017-09-20 13:53 METAR KPOU 201753Z 35011G17KT 10SM BKN040 OVC080 25/18 A2990 RMK AO2 SLP122
                 T02500178 10250 20200 58005 =
2017-09-20 12:53 METAR KPOU 201653Z 36008KT 10SM OVC038 24/18 A2991 RMK AO2 SLP126 T02440178 =
2017-09-20 11:53 METAR KPOU 201553Z 36009G16KT 10SM FEW027 OVC033 23/17 A2992 RMK AO2 SLP127
                 T02330172 =
2017-09-20 10:53 METAR KPOU 201453Z 36008KT 10SM OVC033 23/17 A2992 RMK AO2 SLP127 T02280172
                 50004 =
2017-09-20 09:53 METAR KPOU 201353Z 35008KT 10SM OVC031 22/17 A2993 RMK AO2 SLP130 T02170167 =
2017-09-20 08:53 METAR KPOU 201253Z 35009KT 10SM OVC029 21/17 A2992 RMK AO2 SLP127 T02060167 =
2017-09-20 07:53 METAR KPOU 201153Z 36010KT 10SM OVC029 20/16 A2991 RMK AO2 SLP123 T02000161
                 10206 20194 50003 =
2017-09-20 07:50 METAR KPOU 201150Z 01007KT 10SM OVC029 20/16 A2991 RMK AO2 =
2017-09-20 07:20 METAR KPOU 201120Z 35009KT 10SM OVC030 20/16 A2990 RMK AO2 T02000161 =
2017-09-20 06:53 METAR KPOU 201053Z 01008KT 10SM BKN029 OVC080 20/16 A2990 RMK AO2 SLP120
                 T02000161 =
2017-09-20 06:51 METAR KPOU 201051Z 36008KT 10SM BKN029 OVC075 20/16 A2990 RMK AO2 =
2017-09-20 06:26 METAR KPOU 201026Z AUTO 36009G15KT 10SM SCT029 OVC075 20/16 A2990 RMK AO2
                 T02000161 =
2017-09-20 05:53 METAR KPOU 200953Z AUTO 35006KT 10SM OVC028 20/16 A2988 RMK AO2 SLP115 T02000161
                 =
2017-09-20 04:53 METAR KPOU 200853Z AUTO 36007KT 10SM BKN028 19/16 A2988 RMK AO2 SLP115 T01940161
                 55008 =
2017-09-20 04:35 METAR KPOU 200835Z AUTO 35006KT 10SM BKN028 20/16 A2988 RMK AO2 T02000161 =
2017-09-20 03:53 METAR KPOU 200753Z AUTO 35006KT 10SM SCT028 20/16 A2988 RMK AO2 SLP112 T02000161
                 =
2017-09-20 02:53 METAR KPOU 200653Z AUTO 35005KT 10SM BKN030 21/16 A2989 RMK AO2 SLP116 T02060161
                 =
2017-09-20 01:53 METAR KPOU 200553Z AUTO 01005KT 10SM FEW028 21/17 A2991 RMK AO2 SLP123 60000
                 T02060167 10233 20206 56008 =
2017-09-20 00:53 METAR KPOU 200453Z AUTO 36007KT 10SM BKN033 21/17 A2991 RMK AO2 SLP125 T02110167
                 402670156 =
2017-09-19 23:53 METAR KPOU 200353Z AUTO 01005KT 10SM SCT095 21/17 A2992 RMK AO2 SLP126 T02110167
                 =
2017-09-19 22:53 METAR KPOU 200253Z AUTO 36004KT 10SM FEW030 OVC085 21/17 A2993 RMK AO2 SLP132
                 60000 T02110172 50001 =
2017-09-19 21:53 METAR KPOU 200153Z AUTO 01004KT 10SM OVC070 22/17 A2994 RMK AO2 RAB31E40 SLP135
                 P0000 T02170172 =

Support USWX by starting your Amazon purchase here.